Time;durP1;ratioP1;P1;durP2;ratioP2;P2;SDS_P1;SDS_P2;PMS_P1;PMS_P2;Temp;Humidity;BMP_temperature;BMP_pressure;BME280_temperature;BME280_humidity;BME280_pressure;Samples;Min_cycle;Max_cycle;Signal;HPM_P1;HPM_P2
2022/04/28 00:01:23;;;;;;;4.40;2.20;;;;;;;9.97;54.71;99994.62;1789646;80;21004;-45
2022/04/28 00:03:51;;;;;;;4.22;2.40;;;;;;;10.00;54.25;99996.64;1789850;79;20966;-45
2022/04/28 00:06:18;;;;;;;3.35;2.10;;;;;;;10.01;53.79;99992.24;1789834;80;21559;-45
2022/04/28 00:08:45;;;;;;;4.58;2.22;;;;;;;10.03;53.15;99999.45;1786745;79;21534;-45
2022/04/28 00:11:13;;;;;;;3.20;2.33;;;;;;;10.06;52.97;99998.55;1772999;79;21009;-44
2022/04/28 00:13:40;;;;;;;3.15;1.92;;;;;;;10.08;53.00;99999.78;1773057;81;20887;-45
2022/04/28 00:16:09;;;;;;;5.45;1.90;;;;;;;10.11;52.83;99996.97;1773126;79;21002;-44
2022/04/28 00:18:35;;;;;;;3.08;1.90;;;;;;;10.11;52.70;100003.75;1773075;81;21065;-44
2022/04/28 00:21:01;;;;;;;3.30;2.00;;;;;;;10.11;52.72;100001.83;1773003;79;21128;-44
2022/04/28 00:23:28;;;;;;;2.70;2.02;;;;;;;10.12;52.82;99997.20;1773224;79;21007;-45
2022/04/28 00:25:55;;;;;;;6.00;2.00;;;;;;;10.12;52.93;99997.20;1773241;81;21041;-45
2022/04/28 00:28:24;;;;;;;2.72;1.80;;;;;;;10.10;52.85;100003.52;1773039;81;21000;-45
2022/04/28 00:30:52;;;;;;;4.28;2.22;;;;;;;10.08;52.95;100003.84;1773385;79;21013;-45
2022/04/28 00:33:21;;;;;;;4.75;2.12;;;;;;;10.04;53.09;100010.52;1771281;80;21511;-44
2022/04/28 00:35:48;;;;;;;2.60;2.10;;;;;;;10.00;53.14;100010.97;1773005;81;21550;-44
2022/04/28 00:38:15;;;;;;;5.33;2.10;;;;;;;9.96;52.88;100000.59;1773109;81;20926;-44
2022/04/28 00:40:43;;;;;;;2.92;1.98;;;;;;;9.94;52.93;100010.97;1772995;79;21005;-45
2022/04/28 00:43:21;;;;;;;2.90;1.63;;;;;;;9.92;53.28;100011.09;1773351;79;21833;-45
2022/04/28 00:45:50;;;;;;;2.87;2.12;;;;;;;9.89;53.27;100015.81;1772948;81;21232;-44
2022/04/28 00:51:06;;;;;;;3.30;1.90;;;;;;;9.87;53.40;100016.17;1773085;79;20926;-45
2022/04/28 00:53:46;;;;;;;2.75;1.98;;;;;;;9.84;53.35;100011.41;1772993;81;21001;-45
2022/04/28 00:56:12;;;;;;;;;;;;;;;9.83;53.07;100007.68;1776052;79;21026;-45
2022/04/28 00:58:40;;;;;;;2.75;2.10;;;;;;;9.81;53.03;100008.04;1773029;79;21077;-45
2022/04/28 01:01:08;;;;;;;3.10;2.08;;;;;;;9.70;53.69;100010.95;1768987;79;21503;-45
2022/04/28 01:03:36;;;;;;;3.40;2.20;;;;;;;9.71;53.96;100011.19;1766937;81;21025;-45
2022/04/28 01:06:05;;;;;;;2.85;2.02;;;;;;;9.70;53.61;100010.16;1766692;81;21259;-44
2022/04/28 01:08:33;;;;;;;6.55;1.95;;;;;;;9.69;53.70;100016.70;1766688;81;21029;-44
2022/04/28 01:11:01;;;;;;;3.75;2.20;;;;;;;9.68;53.73;100012.44;1785444;80;21929;-45
2022/04/28 01:13:31;;;;;;;2.22;1.70;;;;;;;9.66;54.00;100007.34;1785791;80;21019;-45
2022/04/28 01:16:04;;;;;;;3.05;2.00;;;;;;;9.66;53.77;100006.00;1785898;79;21023;-45
2022/04/28 01:18:31;;;;;;;3.92;1.85;;;;;;;9.64;53.79;100008.80;1785893;80;21083;-45
2022/04/28 01:21:06;;;;;;;3.52;1.87;;;;;;;9.65;53.83;100005.77;1785883;79;21009;-45
2022/04/28 01:23:37;;;;;;;3.45;1.90;;;;;;;9.65;53.90;100004.41;1781180;80;20960;-45
2022/04/28 01:26:05;;;;;;;2.30;1.75;;;;;;;9.65;53.51;100000.35;1785987;79;21030;-45
2022/04/28 01:28:33;;;;;;;2.98;2.20;;;;;;;9.64;53.23;99997.41;1786092;80;21024;-45
2022/04/28 01:31:01;;;;;;;2.70;1.92;;;;;;;9.64;53.35;99997.41;1786439;79;21525;-45
2022/04/28 01:33:32;;;;;;;3.60;2.10;;;;;;;9.64;52.99;100004.73;1786059;80;21079;-44
2022/04/28 01:35:59;;;;;;;3.02;1.82;;;;;;;9.63;53.35;99995.86;1786188;80;21172;-44
2022/04/28 01:38:28;;;;;;;5.08;2.10;;;;;;;9.64;53.34;99997.97;1785993;80;21571;-45
2022/04/28 01:40:57;;;;;;;3.00;1.90;;;;;;;9.62;53.06;99992.91;1785837;79;20932;-44
2022/04/28 01:43:25;;;;;;;3.08;2.00;;;;;;;9.62;52.95;99992.91;1785843;80;20979;-45
2022/04/28 01:45:52;;;;;;;2.83;1.70;;;;;;;9.62;53.06;99996.18;1785963;80;21031;-44
2022/04/28 01:48:38;;;;;;;3.15;2.00;;;;;;;9.62;53.00;99994.83;1785683;80;23213;-45
2022/04/28 01:56:45;;;;;;;3.87;1.90;;;;;;;9.59;52.38;100000.33;1785514;79;21566;-45
2022/04/28 01:59:32;;;;;;;3.08;1.80;;;;;;;9.59;52.37;100004.40;1785951;80;20955;-45
2022/04/28 02:02:17;;;;;;;3.08;1.98;;;;;;;9.61;52.78;100000.80;1786121;80;21751;-45
2022/04/28 02:04:47;;;;;;;6.78;2.30;;;;;;;9.63;52.85;99997.20;1784596;80;20940;-45
2022/04/28 02:07:15;;;;;;;2.80;2.02;;;;;;;9.66;52.89;99997.88;1786014;80;21052;-45
2022/04/28 02:09:45;;;;;;;2.87;1.80;;;;;;;9.66;53.24;100001.94;1784813;80;20940;-45
2022/04/28 02:12:13;;;;;;;4.15;1.90;;;;;;;9.66;53.22;100001.94;1783668;80;21016;-44
2022/04/28 02:14:47;;;;;;;3.25;2.10;;;;;;;9.66;53.17;99996.52;1783000;80;20920;-45
2022/04/28 02:17:26;;;;;;;2.77;2.05;;;;;;;9.64;53.08;100002.83;1782779;79;20953;-44
2022/04/28 02:19:53;;;;;;;3.33;2.00;;;;;;;9.61;52.97;100004.86;1783752;80;21557;-44
2022/04/28 02:25:14;;;;;;;2.98;2.00;;;;;;;9.60;53.04;100001.36;1836437;78;22674;-43
2022/04/28 02:27:41;;;;;;;2.95;2.08;;;;;;;9.51;53.29;99998.53;1806389;79;20994;-44
2022/04/28 02:30:10;;;;;;;3.10;2.08;;;;;;;9.54;53.19;100000.55;1806462;79;21221;-43
2022/04/28 02:35:23;;;;;;;3.85;2.17;;;;;;;9.50;53.30;100002.36;1806411;79;20962;-44
2022/04/28 02:37:50;;;;;;;4.78;2.02;;;;;;;9.48;53.36;99997.86;1806156;79;21061;-44
2022/04/28 02:40:18;;;;;;;2.50;1.70;;;;;;;9.48;53.40;100001.36;1806329;79;20979;-44
2022/04/28 02:42:47;;;;;;;1.98;1.77;;;;;;;9.46;53.35;99996.04;1806184;79;21006;-44
2022/04/28 02:45:14;;;;;;;4.33;1.98;;;;;;;9.45;53.52;99995.80;1806427;79;20931;-44
2022/04/28 02:47:44;;;;;;;2.95;1.80;;;;;;;9.44;53.38;99994.25;1805742;79;20958;-44
2022/04/28 02:50:11;;;;;;;3.27;1.90;;;;;;;9.40;53.57;100002.23;1806323;79;20975;-44
2022/04/28 02:52:40;;;;;;;3.15;1.60;;;;;;;9.36;53.79;100000.53;1806019;79;21627;-44
2022/04/28 02:55:09;;;;;;;3.75;1.67;;;;;;;9.31;53.67;100004.25;1806442;79;21829;-44
2022/04/28 02:57:37;;;;;;;2.05;1.57;;;;;;;9.27;53.64;100005.25;1806190;79;20915;-44
2022/04/28 03:00:06;;;;;;;3.05;1.65;;;;;;;9.20;53.63;100003.08;1806435;79;21006;-44
2022/04/28 03:02:35;;;;;;;2.80;1.72;;;;;;;9.16;53.60;100009.73;1805903;79;21018;-44
2022/04/28 03:05:04;;;;;;;2.98;1.82;;;;;;;9.04;53.68;100003.50;1806245;79;21014;-43
2022/04/28 03:13:12;;;;;;;2.47;1.80;;;;;;;8.98;53.92;100017.00;1806639;79;21754;-44
2022/04/28 03:15:41;;;;;;;4.28;1.37;;;;;;;8.93;54.04;100017.20;1806593;79;20970;-44
2022/04/28 03:18:09;;;;;;;2.62;1.52;;;;;;;8.93;54.04;100025.31;1806618;79;20983;-44
2022/04/28 03:20:37;;;;;;;7.25;1.72;;;;;;;8.91;54.30;100018.88;1801619;79;21309;-43
2022/04/28 03:23:06;;;;;;;2.83;1.60;;;;;;;8.91;54.42;100022.93;1806435;79;21006;-44
2022/04/28 03:25:35;;;;;;;2.12;1.65;;;;;;;8.90;54.49;100022.73;1793423;80;20974;-44
2022/04/28 03:28:05;;;;;;;2.62;1.72;;;;;;;8.91;54.39;100028.34;1793369;79;21042;-44
2022/04/28 03:30:33;;;;;;;2.15;1.20;;;;;;;8.91;54.41;100031.59;1793425;80;21054;-44
2022/04/28 03:33:02;;;;;;;2.33;1.70;;;;;;;8.90;54.34;100032.19;1789102;79;21995;-44
2022/04/28 03:35:30;;;;;;;2.67;1.62;;;;;;;8.90;54.41;100032.19;1792881;80;21085;-44
2022/04/28 03:37:59;;;;;;;2.90;1.75;;;;;;;8.91;54.35;100039.16;1792631;79;20998;-44
2022/04/28 03:40:28;;;;;;;2.67;1.70;;;;;;;8.90;54.38;100032.75;1792944;79;20975;-44
2022/04/28 03:42:57;;;;;;;1.87;1.60;;;;;;;8.88;54.52;100039.83;1792605;80;20989;-43
2022/04/28 03:45:26;;;;;;;2.12;1.70;;;;;;;8.86;54.49;100039.36;1792705;80;21293;-44
2022/04/28 03:47:53;;;;;;;;;;;;;;;8.83;54.55;100040.03;1795208;80;20963;-44
2022/04/28 03:50:22;;;;;;;3.37;1.80;;;;;;;8.79;54.58;100043.17;1792841;79;20483;-44
2022/04/28 03:52:50;;;;;;;4.00;1.50;;;;;;;8.68;54.97;100051.44;1793049;79;20966;-43
2022/04/28 03:55:19;;;;;;;2.10;1.60;;;;;;;8.71;55.06;100054.27;1792765;79;21046;-44
2022/04/28 03:57:47;;;;;;;2.37;1.90;;;;;;;8.78;54.99;100063.77;1792877;79;20946;-44
2022/04/28 04:00:16;;;;;;;2.37;1.60;;;;;;;8.83;55.13;100061.66;1792810;80;21486;-44
2022/04/28 04:02:44;;;;;;;2.10;1.80;;;;;;;8.92;55.00;100068.34;1793087;79;20985;-44
2022/04/28 04:05:12;;;;;;;2.42;1.60;;;;;;;9.00;55.17;100068.30;1792951;79;21583;-44
2022/04/28 04:07:43;;;;;;;3.35;1.62;;;;;;;9.10;54.98;100074.62;1792775;79;20967;-42
2022/04/28 04:10:16;;;;;;;7.00;1.70;;;;;;;9.22;54.71;100074.45;1792193;79;21132;-43
2022/04/28 04:12:50;;;;;;;1.98;1.37;;;;;;;9.30;54.22;100081.13;1792773;79;20954;-43
2022/04/28 04:15:18;;;;;;;2.20;1.62;;;;;;;9.40;54.35;100078.56;1793027;79;21568;-42
2022/04/28 04:17:48;;;;;;;2.58;1.70;;;;;;;9.48;54.22;100082.56;1791860;79;20974;-43
2022/04/28 04:20:15;;;;;;;4.15;1.70;;;;;;;9.55;54.01;100087.41;1792743;80;21615;-43
2022/04/28 04:22:43;;;;;;;3.72;1.92;;;;;;;9.63;53.79;100092.52;1792682;79;21136;-43
2022/04/28 04:25:11;;;;;;;2.98;1.60;;;;;;;9.67;53.57;100087.45;1792512;79;21005;-43
2022/04/28 04:27:38;;;;;;;2.55;1.40;;;;;;;9.74;53.68;100093.09;1792780;80;21519;-40
2022/04/28 04:33:06;;;;;;;1.67;1.32;;;;;;;9.89;53.44;100095.70;1792963;79;20899;-43
2022/04/28 04:35:34;;;;;;;2.08;1.50;;;;;;;9.96;53.41;100094.05;1792618;80;21130;-43
2022/04/28 04:38:02;;;;;;;3.77;1.42;;;;;;;10.03;53.60;100095.62;1792601;79;21018;-43
2022/04/28 04:40:31;;;;;;;3.60;1.42;;;;;;;10.10;53.01;100099.69;1792668;79;20923;-43
2022/04/28 04:43:01;;;;;;;3.12;1.62;;;;;;;10.15;53.10;100101.62;1793006;79;21883;-43
2022/04/28 04:45:28;;;;;;;4.28;1.65;;;;;;;10.22;52.98;100102.42;1792572;80;20999;-44
2022/04/28 04:48:05;;;;;;;3.60;1.55;;;;;;;10.26;52.80;100098.69;1753943;79;21909;-44
2022/04/28 04:50:39;;;;;;;3.72;1.82;;;;;;;10.35;53.04;100104.02;1776806;80;21022;-44
2022/04/28 04:53:09;;;;;;;;;;;;;;;10.44;52.95;100107.41;1795503;79;21489;-44
2022/04/28 04:55:38;;;;;;;3.20;1.70;;;;;;;10.54;52.66;100110.22;1792765;79;20142;-43
2022/04/28 04:58:07;;;;;;;3.63;1.80;;;;;;;10.54;52.89;100108.30;1793022;79;20983;-44
2022/04/28 05:00:36;;;;;;;2.77;2.08;;;;;;;10.65;52.68;100108.04;1793031;79;21504;-44
2022/04/28 05:03:09;;;;;;;2.25;1.52;;;;;;;10.74;51.66;100112.80;1790125;80;20959;-44
2022/04/28 05:05:38;;;;;;;2.13;1.70;;;;;;;10.81;51.04;100117.06;1767925;79;20955;-44
2022/04/28 05:08:12;;;;;;;3.12;2.00;;;;;;;10.86;50.64;100114.67;1792411;79;20980;-44
2022/04/28 05:10:42;;;;;;;4.15;1.65;;;;;;;10.92;50.63;100113.88;1791837;79;21108;-44
2022/04/28 05:13:11;;;;;;;4.00;1.85;;;;;;;11.00;50.85;100121.08;1792671;80;21147;-43
2022/04/28 05:15:39;;;;;;;3.35;1.82;;;;;;;11.07;51.18;100121.30;1791358;79;21515;-44
2022/04/28 05:18:11;;;;;;;3.80;2.00;;;;;;;11.15;50.82;100131.22;1790964;79;20920;-44
2022/04/28 05:20:40;;;;;;;3.52;2.30;;;;;;;11.21;50.47;100130.64;1788835;79;21014;-44
2022/04/28 05:23:14;;;;;;;3.67;2.37;;;;;;;11.31;50.37;100125.29;1788924;80;22037;-44
2022/04/28 05:25:59;;;;;;;6.33;2.90;;;;;;;11.40;50.15;100115.06;1715579;83;20998;-43
2022/04/28 05:28:38;;;;;;;3.27;2.33;;;;;;;11.48;49.45;100117.39;1682667;79;20938;-43
2022/04/28 05:31:24;;;;;;;4.87;2.75;;;;;;;11.54;49.32;100117.38;1790561;80;20974;-43
2022/04/28 05:33:58;;;;;;;5.55;2.62;;;;;;;11.63;49.48;100121.52;1754963;79;20997;-43
2022/04/28 05:36:32;;;;;;;4.40;2.45;;;;;;;11.74;49.23;100121.27;1775637;80;21569;-44
2022/04/28 05:39:01;;;;;;;3.45;2.02;;;;;;;11.85;49.39;100118.04;1790133;79;20958;-43
2022/04/28 05:41:28;;;;;;;2.50;1.60;;;;;;;11.95;49.13;100125.67;1790174;79;21002;-44
2022/04/28 05:46:43;;;;;;;3.98;1.92;;;;;;;12.15;48.26;100123.28;1790022;79;20979;-43
2022/04/28 05:49:10;;;;;;;2.45;1.40;;;;;;;12.25;47.03;100119.23;1790177;79;21021;-43
2022/04/28 05:51:40;;;;;;;1.90;1.50;;;;;;;12.33;46.35;100121.77;1790273;79;21596;-41
2022/04/28 05:54:10;;;;;;;1.80;1.30;;;;;;;12.42;46.37;100116.93;1779059;80;20979;-44
2022/04/28 05:56:38;;;;;;;3.98;1.80;;;;;;;12.50;46.18;100120.02;1758907;81;20968;-43
2022/04/28 05:59:09;;;;;;;3.55;1.70;;;;;;;12.61;46.12;100121.06;1758785;81;20978;-43
2022/04/28 06:01:40;;;;;;;5.22;1.90;;;;;;;12.75;45.26;100121.95;1758978;81;20954;-43
2022/04/28 06:04:07;;;;;;;2.67;1.60;;;;;;;12.86;45.75;100120.27;1741521;81;21135;-43
2022/04/28 06:06:36;;;;;;;2.20;1.50;;;;;;;13.03;44.75;100123.92;1758892;80;21500;-44
2022/04/28 06:09:04;;;;;;;3.05;1.80;;;;;;;13.19;43.97;100127.19;1759010;81;21012;-43
2022/04/28 06:11:32;;;;;;;2.42;1.40;;;;;;;13.29;41.51;100126.05;1758921;81;21569;-44
2022/04/28 06:14:02;;;;;;;2.62;1.25;;;;;;;13.35;41.76;100127.34;1758989;81;21025;-44
2022/04/28 06:16:49;;;;;;;4.62;2.00;;;;;;;13.38;41.95;100132.63;1759099;81;21009;-44
2022/04/28 06:19:21;;;;;;;;;;;;;;;13.44;41.17;100124.40;1761977;81;20932;-44
2022/04/28 06:22:07;;;;;;;2.72;1.37;;;;;;;13.53;42.29;100129.05;1759066;81;20116;-44
2022/04/28 06:24:42;;;;;;;3.20;2.00;;;;;;;13.56;42.62;100138.42;1759544;80;20954;-44
2022/04/28 06:27:09;;;;;;;1.92;1.40;;;;;;;13.67;41.63;100132.61;1761550;80;21046;-45
2022/04/28 06:29:39;;;;;;;1.90;1.20;;;;;;;13.75;39.09;100128.85;1761723;80;26576;-45
2022/04/28 06:32:07;;;;;;;4.17;1.47;;;;;;;13.78;37.85;100132.23;1761416;81;21071;-45
2022/04/28 06:34:52;;;;;;;2.15;1.45;;;;;;;13.79;38.74;100135.97;1728417;82;20989;-45
2022/04/28 06:37:21;;;;;;;3.72;1.57;;;;;;;13.80;38.63;100139.45;1728331;83;21020;-45
2022/04/28 06:39:53;;;;;;;;;;;;;;;13.81;37.15;100141.04;1730767;82;21494;-44
2022/04/28 06:42:21;;;;;;;2.65;1.55;;;;;;;13.58;36.92;100104.80;1728276;82;20142;-44
2022/04/28 06:45:10;;;;;;;3.98;1.55;;;;;;;13.74;37.90;100149.10;1724941;83;21491;-45
2022/04/28 06:47:55;;;;;;;3.58;1.57;;;;;;;13.78;38.97;100148.02;1728137;82;20993;-44
2022/04/28 06:50:41;;;;;;;3.75;1.52;;;;;;;13.90;39.18;100147.05;1728066;82;20945;-45
2022/04/28 06:53:26;;;;;;;1.65;1.35;;;;;;;14.00;38.24;100149.17;1728323;83;21537;-44
2022/04/28 06:56:00;;;;;;;2.02;1.40;;;;;;;14.09;37.63;100154.38;1727501;82;21095;-44
2022/04/28 06:58:31;;;;;;;2.92;1.42;;;;;;;14.12;38.81;100162.64;1728293;82;20933;-44
2022/04/28 07:00:59;;;;;;;3.45;1.82;;;;;;;14.21;39.53;100164.55;1727835;82;21578;-44
2022/04/28 07:03:28;;;;;;;4.03;1.70;;;;;;;14.32;39.22;100166.89;1728140;83;21075;-44
2022/04/28 07:05:56;;;;;;;6.33;3.42;;;;;;;14.48;39.27;100166.77;1727992;83;21032;-44
2022/04/28 07:08:24;;;;;;;5.33;2.85;;;;;;;14.70;38.64;100170.62;1728135;82;21543;-44
2022/04/28 07:10:54;;;;;;;6.30;4.10;;;;;;;14.89;38.42;100167.00;1728085;82;21519;-44
2022/04/28 07:13:22;;;;;;;2.92;1.70;;;;;;;15.05;36.17;100164.31;1747194;80;21017;-44
2022/04/28 07:16:08;;;;;;;2.35;1.27;;;;;;;15.17;35.90;100166.02;1752611;81;21107;-44
2022/04/28 07:18:53;;;;;;;1.90;1.20;;;;;;;15.26;36.11;100176.66;1748821;81;20976;-45
2022/04/28 07:21:21;;;;;;;2.50;1.40;;;;;;;15.32;34.83;100170.51;1752555;81;21012;-45
2022/04/28 07:23:49;;;;;;;1.87;1.12;;;;;;;15.34;34.63;100184.59;1752477;81;21011;-45
2022/04/28 07:26:16;;;;;;;1.60;1.20;;;;;;;15.33;34.56;100181.66;1752653;81;20968;-45
2022/04/28 07:28:46;;;;;;;3.62;1.22;;;;;;;15.34;34.09;100186.54;1752748;81;20936;-45
2022/04/28 07:31:23;;;;;;;1.98;1.40;;;;;;;15.39;34.15;100180.75;1744352;81;21084;-44
2022/04/28 07:33:56;;;;;;;3.15;1.50;;;;;;;15.55;33.95;100175.88;1748511;81;21526;-45
2022/04/28 07:36:44;;;;;;;3.55;1.80;;;;;;;15.76;33.12;100174.77;1752621;81;21470;-44
2022/04/28 07:39:29;;;;;;;1.98;1.57;;;;;;;15.94;33.81;100179.05;1752480;81;21056;-45
2022/04/28 07:41:58;;;;;;;1.63;1.40;;;;;;;16.16;34.66;100180.05;1753264;81;21052;-44
2022/04/28 07:44:25;;;;;;;4.40;2.40;;;;;;;16.41;35.13;100176.36;1752409;81;21090;-44
2022/04/28 07:46:51;;;;;;;3.58;2.05;;;;;;;16.64;35.41;100177.56;1752334;81;23152;-44
2022/04/28 07:49:20;;;;;;;3.25;1.82;;;;;;;16.74;34.60;100178.23;1752299;81;21068;-44
2022/04/28 07:51:48;;;;;;;2.98;1.70;;;;;;;16.69;34.73;100178.58;1752451;81;21034;-44
2022/04/28 07:54:17;;;;;;;3.15;2.00;;;;;;;16.63;34.68;100173.25;1752419;81;20905;-45
2022/04/28 07:56:47;;;;;;;5.85;2.25;;;;;;;16.62;34.76;100167.56;1752499;81;21047;-44
2022/04/28 07:59:15;;;;;;;;;;;;;;;16.77;35.74;100176.66;1755092;81;21224;-44
2022/04/28 08:01:43;;;;;;;5.95;2.15;;;;;;;16.99;35.00;100177.60;1751682;81;20157;-44
2022/04/28 08:04:11;;;;;;;5.60;2.15;;;;;;;17.11;34.57;100177.27;1752457;81;21130;-45
2022/04/28 08:06:38;;;;;;;2.40;1.70;;;;;;;17.40;34.54;100177.61;1752574;81;20989;-45
2022/04/28 08:09:07;;;;;;;2.62;2.17;;;;;;;17.68;33.34;100181.84;1752243;81;21004;-44
2022/04/28 08:11:36;;;;;;;3.08;1.70;;;;;;;17.88;33.07;100172.70;1726732;83;21087;-45
2022/04/28 08:14:03;;;;;;;2.98;1.70;;;;;;;18.01;32.48;100175.87;1726779;83;21006;-45
2022/04/28 08:16:31;;;;;;;3.95;2.00;;;;;;;18.13;33.02;100174.11;1726947;82;21008;-44
2022/04/28 08:18:58;;;;;;;2.70;1.70;;;;;;;18.27;33.19;100170.59;1726925;83;21542;-45
2022/04/28 08:21:28;;;;;;;;;;;;;;;18.37;32.69;100176.68;1729223;82;20941;-45
2022/04/28 08:23:56;;;;;;;2.95;1.62;;;;;;;18.49;31.87;100170.20;1694284;84;21201;-45
2022/04/28 08:26:24;;;;;;;2.37;1.67;;;;;;;18.48;31.92;100168.66;1670117;85;21104;-44
2022/04/28 08:28:51;;;;;;;3.95;1.72;;;;;;;18.60;31.72;100174.34;1674094;85;21044;-44
2022/04/28 08:31:21;;;;;;;;;;;;;;;18.73;31.24;100175.53;1676827;85;20942;-44
2022/04/28 08:33:50;;;;;;;3.10;1.40;;;;;;;18.77;31.30;100174.94;1674470;85;20183;-44
2022/04/28 08:36:19;;;;;;;2.55;1.40;;;;;;;18.63;29.69;100183.19;1674482;85;20926;-44
2022/04/28 08:38:47;;;;;;;2.55;1.10;;;;;;;18.51;29.63;100180.21;1673986;85;21009;-44
2022/04/28 08:41:20;;;;;;;1.42;1.27;;;;;;;18.49;30.52;100181.18;1674402;85;21519;-44
2022/04/28 08:44:07;;;;;;;1.77;1.30;;;;;;;18.55;29.65;100173.37;1674298;85;21030;-45
2022/04/28 08:46:53;;;;;;;3.27;1.47;;;;;;;18.61;30.40;100175.34;1674333;85;21041;-44
2022/04/28 08:49:27;;;;;;;2.02;1.37;;;;;;;18.78;30.01;100182.00;1674362;85;21259;-44
2022/04/28 08:51:57;;;;;;;1.47;1.30;;;;;;;19.00;29.58;100174.48;1671390;85;21336;-44
2022/04/28 08:54:27;;;;;;;1.30;1.05;;;;;;;19.21;28.63;100168.95;1669767;85;21029;-44
2022/04/28 08:56:58;;;;;;;2.40;1.22;;;;;;;19.34;29.12;100174.20;1678700;85;21611;-45
2022/04/28 08:59:25;;;;;;;1.67;1.40;;;;;;;19.43;28.00;100164.92;1711161;83;21468;-44
2022/04/28 09:01:54;;;;;;;5.62;1.57;;;;;;;19.41;28.92;100163.77;1711355;82;21009;-45
2022/04/28 09:04:41;;;;;;;2.17;1.40;;;;;;;19.25;27.92;100157.34;1648596;84;21570;-45
2022/04/28 09:07:37;;;;;;;2.33;1.32;;;;;;;19.04;28.82;100160.94;1700175;83;21033;-45
2022/04/28 09:10:32;;;;;;;1.80;1.50;;;;;;;18.88;29.53;100159.81;1644069;85;21500;-44
2022/04/28 09:16:00;;;;;;;1.98;1.40;;;;;;;18.69;29.76;100156.12;1688690;83;21986;-43
2022/04/28 09:18:30;;;;;;;3.27;1.43;;;;;;;18.75;29.85;100154.52;1711602;82;20926;-43
2022/04/28 09:20:58;;;;;;;2.90;1.57;;;;;;;18.89;30.20;100158.61;1711319;83;20989;-43
2022/04/28 09:23:25;;;;;;;4.10;1.60;;;;;;;18.99;28.62;100160.55;1699445;83;21908;-44
2022/04/28 09:25:53;;;;;;;1.57;1.25;;;;;;;19.03;29.59;100155.23;1716806;83;21037;-44
2022/04/28 09:28:22;;;;;;;2.17;1.22;;;;;;;19.14;28.72;100157.17;1726665;83;23171;-44
2022/04/28 09:30:51;;;;;;;5.30;2.42;;;;;;;19.33;29.08;100158.87;1708894;83;21590;-44
2022/04/28 09:33:36;;;;;;;1.75;1.40;;;;;;;19.46;28.59;100161.39;1726593;82;20989;-45
2022/04/28 09:36:09;;;;;;;1.40;1.20;;;;;;;19.50;28.76;100164.15;1726520;82;20968;-45
2022/04/28 09:38:42;;;;;;;1.87;1.07;;;;;;;19.53;28.95;100170.22;1725775;82;20965;-45
2022/04/28 09:43:56;;;;;;;3.02;1.35;;;;;;;19.74;28.63;100159.70;1726477;83;21019;-44
2022/04/28 09:46:25;;;;;;;3.30;1.60;;;;;;;19.90;28.27;100162.73;1726855;82;21388;-44
2022/04/28 09:48:55;;;;;;;2.65;1.55;;;;;;;19.95;27.80;100156.22;1726571;82;21539;-44
2022/04/28 09:51:44;;;;;;;2.98;1.62;;;;;;;19.97;27.83;100157.20;1724068;82;21049;-44
2022/04/28 09:54:19;;;;;;;1.90;1.27;;;;;;;20.12;28.62;100158.67;1726496;82;21060;-44
2022/04/28 09:56:50;;;;;;;2.72;1.12;;;;;;;20.32;27.96;100156.98;1726281;82;21027;-45
2022/04/28 09:59:19;;;;;;;1.57;1.30;;;;;;;20.38;28.02;100156.71;1708524;83;21550;-45
2022/04/28 10:01:48;;;;;;;1.62;1.10;;;;;;;20.47;28.02;100156.86;1726739;82;20989;-45
2022/04/28 10:04:15;;;;;;;2.05;1.60;;;;;;;20.62;27.56;100148.66;1726689;83;21084;-45
2022/04/28 10:07:00;;;;;;;2.02;1.37;;;;;;;20.69;26.25;100143.06;1685071;85;21482;-43
2022/04/28 10:09:32;;;;;;;3.65;1.50;;;;;;;20.66;26.64;100139.16;1714318;82;20905;-44
2022/04/28 10:12:09;;;;;;;9.75;1.45;;;;;;;20.75;27.94;100144.19;1725790;82;21562;-44
2022/04/28 10:14:49;;;;;;;2.20;1.22;;;;;;;20.89;27.41;100147.39;1724920;82;21029;-43
2022/04/28 10:17:43;;;;;;;2.15;1.10;;;;;;;20.89;27.17;100153.69;1727098;82;21535;-44
2022/04/28 10:20:18;;;;;;;2.90;1.40;;;;;;;20.78;26.84;100151.63;1726812;82;20965;-44
2022/04/28 10:22:50;;;;;;;3.47;1.50;;;;;;;20.63;27.83;100147.45;1726342;82;21021;-44
2022/04/28 10:34:13;;;;;;;1.67;1.07;;;;;;;20.76;26.68;100157.57;1708694;83;21101;-44
2022/04/28 10:36:57;;;;;;;1.17;0.90;;;;;;;20.79;26.03;100151.83;1724235;83;20980;-44
2022/04/28 10:39:42;;;;;;;1.27;1.00;;;;;;;20.86;26.10;100149.60;1724316;82;20985;-44
2022/04/28 10:42:16;;;;;;;1.07;0.95;;;;;;;20.80;25.86;100141.78;1724419;83;21081;-44
2022/04/28 10:44:54;;;;;;;1.57;1.15;;;;;;;20.67;27.05;100145.46;1706116;83;21535;-45
2022/04/28 10:47:31;;;;;;;1.40;1.00;;;;;;;20.63;26.91;100139.17;1724368;83;21244;-45
2022/04/28 10:49:58;;;;;;;2.12;1.10;;;;;;;20.61;26.51;100142.36;1706957;83;20965;-45
2022/04/28 10:52:27;;;;;;;2.37;1.15;;;;;;;20.41;26.33;100145.48;1724353;83;20973;-45
2022/04/28 10:55:01;;;;;;;1.67;1.22;;;;;;;20.26;26.60;100146.17;1724284;82;20965;-45
2022/04/28 10:57:32;;;;;;;2.77;0.93;;;;;;;20.24;27.85;100143.62;1724555;83;21013;-44
2022/04/28 11:00:00;;;;;;;1.55;1.02;;;;;;;20.37;27.80;100137.27;1724467;83;23637;-44
2022/04/28 11:02:37;;;;;;;2.50;1.00;;;;;;;20.50;26.94;100130.65;1724757;82;20953;-44
2022/04/28 11:05:28;;;;;;;1.35;1.10;;;;;;;20.56;26.14;100124.89;1724608;82;21017;-44
2022/04/28 11:07:58;;;;;;;1.80;1.40;;;;;;;20.62;25.82;100116.97;1706519;83;21582;-44
2022/04/28 11:10:27;;;;;;;1.80;1.23;;;;;;;20.80;27.11;100116.97;1724849;82;21053;-45
2022/04/28 11:12:55;;;;;;;3.05;1.10;;;;;;;21.10;26.80;100112.11;1724487;82;21012;-44
2022/04/28 11:15:23;;;;;;;1.47;0.98;;;;;;;21.45;26.41;100116.41;1724288;83;21504;-45
2022/04/28 11:17:53;;;;;;;1.65;0.90;;;;;;;21.75;24.92;100119.73;1724298;83;21503;-45
2022/04/28 11:20:21;;;;;;;1.37;1.10;;;;;;;21.82;25.04;100114.13;1724267;83;20929;-45
2022/04/28 11:22:56;;;;;;;1.57;1.10;;;;;;;21.87;24.70;100116.42;1724063;82;21072;-45
2022/04/28 11:25:23;;;;;;;1.50;1.20;;;;;;;21.92;24.95;100113.19;1724275;82;21258;-45
2022/04/28 11:27:53;;;;;;;1.70;1.07;;;;;;;22.07;25.22;100111.02;1726331;82;21558;-45
2022/04/28 11:30:24;;;;;;;1.35;0.80;;;;;;;22.29;24.19;100108.67;1726906;82;20969;-45
2022/04/28 11:32:58;;;;;;;5.87;1.00;;;;;;;22.47;24.64;100109.14;1726688;82;20993;-45
2022/04/28 11:35:41;;;;;;;1.57;1.05;;;;;;;22.63;23.12;100102.95;1726746;83;21045;-45
2022/04/28 11:38:09;;;;;;;1.35;0.90;;;;;;;22.67;22.58;100103.66;1726812;83;21203;-45
2022/04/28 11:40:38;;;;;;;1.40;0.90;;;;;;;22.57;22.11;100092.97;1726686;82;21499;-45
2022/04/28 11:43:04;;;;;;;4.28;1.10;;;;;;;22.59;23.21;100091.96;1726697;83;20969;-45
2022/04/28 11:45:33;;;;;;;1.47;1.00;;;;;;;22.71;22.47;100088.59;1726691;82;21535;-45
2022/04/28 11:48:03;;;;;;;1.57;1.10;;;;;;;22.64;22.50;100085.95;1726763;83;21059;-45
2022/04/28 11:50:34;;;;;;;1.40;0.97;;;;;;;22.63;23.40;100088.52;1727223;83;21236;-45
2022/04/28 11:53:09;;;;;;;1.87;0.80;;;;;;;22.82;22.58;100078.12;1726817;82;21472;-45
2022/04/28 11:55:38;;;;;;;1.50;1.30;;;;;;;23.00;21.95;100081.12;1726853;83;20961;-45
2022/04/28 11:58:06;;;;;;;2.25;1.40;;;;;;;22.99;22.62;100080.36;1726794;83;21058;-45
2022/04/28 12:00:43;;;;;;;2.00;1.05;;;;;;;22.96;23.26;100077.83;1726925;82;20969;-45
2022/04/28 12:03:27;;;;;;;1.95;1.30;;;;;;;22.99;23.63;100083.12;1727243;83;21143;-45
2022/04/28 12:05:54;;;;;;;2.08;1.22;;;;;;;22.70;24.25;100083.48;1726642;82;21076;-45
2022/04/28 12:08:24;;;;;;;2.45;1.07;;;;;;;22.14;25.01;100082.48;1726967;82;21528;-45
2022/04/28 12:19:20;;;;;;;1.90;1.25;;;;;;;21.02;26.64;100069.27;1726750;83;20902;-45
2022/04/28 12:21:47;;;;;;;1.10;1.00;;;;;;;21.34;26.85;100073.63;1726465;82;21542;-45
2022/04/28 12:24:26;;;;;;;1.60;1.10;;;;;;;21.75;25.97;100067.30;1726696;83;21024;-45
2022/04/28 12:26:49;;;;;;;1.65;1.02;;;;;;;21.89;25.21;100067.08;1725786;82;21503;-45
2022/04/28 12:29:19;;;;;;;2.20;1.02;;;;;;;21.92;25.13;100067.64;1726774;83;21594;-45
2022/04/28 12:31:47;;;;;;;2.25;1.12;;;;;;;21.79;24.90;100059.73;1726811;83;20976;-45
2022/04/28 12:34:23;;;;;;;2.52;1.20;;;;;;;21.79;25.16;100070.78;1726701;82;20969;-45
2022/04/28 12:36:57;;;;;;;2.52;1.20;;;;;;;21.80;24.64;100064.07;1726637;83;21024;-45